Bryson City, North Carolina
Current Conditions -  °F | °C
As of 6:15 PM on Wednesday 26 Nov 2014 (Local Time) from KRHP Reporting Station
Broken Clouds Broken Clouds  
Wind Chill: 43°   Ceiling: 11000
Heat Index: 43°   Visibility: 10mi
Dew Point: 26°   Wind: 3mph
Humidity: 50%   Direction: 270°W
Pressure: 30.04"   Gusts: NA
Location:  35.43°N, 83.45°W
Report Text: KRHP 262315Z AUTO 27003KT 10SM BKN110 06/M04 A3004 RMK AO2 T00611036
Loading
Personal Weather Stations






























Interactive Weather Map New forecast layout! Learn more

10-Day Weather Forecast

Advertisements
Track Severe Weather on mobile